createdAt,value
2023-02-06T00:00:20.286Z,6.66
2023-02-06T00:03:06.677Z,6.55
2023-02-06T00:05:59.207Z,6.36
2023-02-06T00:24:18.671Z,6.22
2023-02-06T00:27:06.311Z,6.33
2023-02-06T00:29:52.679Z,5.98
2023-02-06T00:32:39.748Z,6.03
2023-02-06T00:35:26.791Z,6.05
2023-02-06T00:38:13.454Z,6.11
2023-02-06T00:41:00.508Z,6.24
2023-02-06T00:43:48.157Z,6.16
2023-02-06T00:46:34.794Z,6.32
2023-02-06T00:49:21.527Z,6.38
2023-02-06T00:52:08.349Z,6.64
2023-02-06T00:54:55.089Z,6.78
2023-02-06T00:57:41.498Z,6.83
2023-02-06T01:00:29.192Z,6.88
2023-02-06T01:03:17.215Z,6.86
2023-02-06T01:06:04.109Z,7.15
2023-02-06T01:08:50.800Z,6.88
2023-02-06T01:11:37.463Z,6.77
2023-02-06T01:14:24.562Z,6.82
2023-02-06T01:17:12.552Z,6.63
2023-02-06T01:19:59.499Z,6.92
2023-02-06T01:22:46.363Z,6.49
2023-02-06T01:25:33.460Z,6.73
2023-02-06T01:28:20.361Z,6.54
2023-02-06T01:31:12.041Z,6.50
2023-02-06T01:34:01.573Z,6.85
2023-02-06T01:36:48.218Z,6.94
2023-02-06T01:39:35.556Z,6.87
2023-02-06T01:42:22.374Z,7.09
2023-02-06T01:45:38.924Z,6.98
2023-02-06T01:48:31.483Z,7.16
2023-02-06T01:51:22.448Z,6.91
2023-02-06T01:54:10.576Z,6.71
2023-02-06T01:57:02.911Z,7.18
2023-02-06T01:59:53.740Z,7.07
2023-02-06T02:02:48.372Z,7.33
2023-02-06T02:05:36.624Z,7.06
2023-02-06T02:08:32.668Z,7.18
2023-02-06T02:11:24.283Z,7.06
2023-02-06T02:14:13.473Z,7.07
2023-02-06T02:17:15.804Z,6.75
2023-02-06T02:20:40.839Z,6.99
2023-02-06T02:23:37.656Z,6.68
2023-02-06T02:26:56.494Z,7.05
2023-02-06T02:30:10.912Z,6.99
2023-02-06T02:33:28.813Z,6.84
2023-02-06T02:36:23.529Z,6.93
2023-02-06T02:39:19.117Z,6.63
2023-02-06T02:42:14.602Z,6.78
2023-02-06T02:45:07.652Z,6.88
2023-02-06T02:47:59.356Z,7.21
2023-02-06T02:50:46.279Z,7.17
2023-02-06T02:53:34.395Z,7.33
2023-02-06T02:56:23.794Z,7.18
2023-02-06T02:59:19.218Z,7.41
2023-02-06T03:02:09.047Z,7.42
2023-02-06T03:04:59.251Z,7.54
2023-02-06T03:07:59.198Z,7.41
2023-02-06T03:10:53.904Z,7.69
2023-02-06T03:13:45.317Z,7.49
2023-02-06T03:16:39.017Z,7.54
2023-02-06T03:19:30.193Z,7.33
2023-02-06T03:22:17.769Z,7.42
2023-02-06T03:25:08.067Z,7.17
2023-02-06T03:27:56.740Z,6.98
2023-02-06T03:30:49.134Z,7.01
2023-02-06T03:33:40.986Z,6.99
2023-02-06T03:36:27.884Z,6.77
2023-02-06T03:39:14.502Z,6.43
2023-02-06T03:42:04.562Z,6.07
2023-02-06T03:45:01.192Z,5.79
2023-02-06T03:47:49.791Z,6.10
2023-02-06T03:50:37.379Z,6.31
2023-02-06T03:53:26.554Z,6.28
2023-02-06T03:56:17.176Z,6.59
2023-02-06T03:59:04.243Z,6.68
2023-02-06T04:01:55.050Z,6.64
2023-02-06T04:04:43.450Z,6.63
2023-02-06T04:07:32.133Z,6.77
2023-02-06T04:10:18.594Z,6.93
2023-02-06T04:13:05.330Z,6.92
2023-02-06T04:15:52.050Z,6.98
2023-02-06T04:18:39.979Z,7.32
2023-02-06T04:21:26.614Z,6.77
2023-02-06T04:24:13.177Z,6.63
2023-02-06T04:27:00.114Z,6.82
2023-02-06T04:29:46.582Z,6.72
2023-02-06T04:32:33.763Z,6.90
2023-02-06T04:35:21.501Z,6.75
2023-02-06T04:38:08.123Z,7.07
2023-02-06T04:40:54.807Z,6.91
2023-02-06T04:43:41.590Z,7.00
2023-02-06T04:46:28.394Z,7.34
2023-02-06T04:49:15.408Z,7.21
2023-02-06T04:52:03.777Z,7.30
2023-02-06T04:54:50.045Z,7.05
2023-02-06T04:57:36.616Z,7.35
2023-02-06T05:00:23.585Z,7.14
2023-02-06T05:03:10.337Z,7.35
2023-02-06T05:05:59.670Z,7.38
2023-02-06T05:08:47.915Z,7.62
2023-02-06T05:11:34.925Z,7.19
2023-02-06T05:14:21.830Z,7.28
2023-02-06T05:17:08.170Z,7.11
2023-02-06T05:19:56.447Z,7.22
2023-02-06T05:22:44.592Z,7.35
2023-02-06T05:25:32.515Z,6.84
2023-02-06T05:28:19.357Z,6.39
2023-02-06T05:31:06.079Z,7.30
2023-02-06T05:33:52.959Z,7.30
2023-02-06T05:36:39.273Z,7.39
2023-02-06T05:39:27.119Z,7.26
2023-02-06T05:42:14.745Z,7.29
2023-02-06T05:45:01.264Z,7.03
2023-02-06T05:47:47.795Z,7.02
2023-02-06T05:50:34.393Z,6.98
2023-02-06T05:53:20.937Z,7.10
2023-02-06T05:56:08.283Z,7.16
2023-02-06T05:58:56.267Z,7.09
2023-02-06T06:01:42.813Z,7.07
2023-02-06T06:04:29.593Z,7.28
2023-02-06T06:07:17.078Z,7.22
2023-02-06T06:10:03.786Z,7.23
2023-02-06T06:12:50.818Z,6.97
2023-02-06T06:15:39.080Z,6.83
2023-02-06T06:18:26.039Z,6.60
2023-02-06T06:21:12.473Z,6.45
2023-02-06T06:23:59.176Z,6.34
2023-02-06T06:26:45.798Z,6.38
2023-02-06T06:29:32.281Z,5.96
2023-02-06T06:32:20.907Z,6.39
2023-02-06T06:35:09.090Z,6.67
2023-02-06T06:37:55.603Z,6.83
2023-02-06T06:40:42.935Z,6.54
2023-02-06T06:43:30.443Z,6.66
2023-02-06T06:46:17.150Z,6.73
2023-02-06T06:49:05.140Z,6.61
2023-02-06T06:51:52.414Z,6.35
2023-02-06T06:54:39.039Z,6.42
2023-02-06T06:57:25.771Z,6.60
2023-02-06T07:00:14.218Z,6.36
2023-02-06T07:03:01.402Z,6.46
2023-02-06T07:05:50.332Z,6.48
2023-02-06T07:08:41.903Z,6.53
2023-02-06T07:11:28.872Z,6.53
2023-02-06T07:14:15.755Z,6.79
2023-02-06T07:17:02.529Z,6.66
2023-02-06T07:19:51.511Z,6.77
2023-02-06T07:22:39.364Z,7.01
2023-02-06T07:25:26.156Z,7.10
2023-02-06T07:28:13.073Z,7.30
2023-02-06T07:31:01.514Z,7.55
2023-02-06T07:33:49.008Z,7.72
2023-02-06T07:36:36.368Z,7.63
2023-02-06T07:39:24.396Z,7.58
2023-02-06T07:42:12.116Z,7.64
2023-02-06T07:45:10.984Z,7.85
2023-02-06T07:47:57.782Z,8.04
2023-02-06T07:50:44.176Z,8.20
2023-02-06T07:53:30.842Z,8.14
2023-02-06T07:56:23.207Z,8.43
2023-02-06T07:59:10.419Z,8.37
2023-02-06T08:01:56.973Z,8.64
2023-02-06T08:04:43.933Z,8.88
2023-02-06T08:07:30.946Z,8.96
2023-02-06T08:10:17.774Z,9.01
2023-02-06T08:13:05.947Z,9.12
2023-02-06T08:15:52.714Z,9.38
2023-02-06T08:18:39.866Z,9.32
2023-02-06T08:21:27.013Z,9.56
2023-02-06T08:24:14.355Z,9.86
2023-02-06T08:27:01.063Z,9.49
2023-02-06T08:29:49.146Z,9.73
2023-02-06T08:32:36.321Z,9.74
2023-02-06T08:35:22.952Z,9.84
2023-02-06T08:38:09.812Z,10.27
2023-02-06T08:40:56.441Z,10.38
2023-02-06T08:43:43.256Z,10.24
2023-02-06T08:46:33.164Z,9.60
2023-02-06T08:49:21.330Z,10.15
2023-02-06T08:52:08.097Z,10.64
2023-02-06T08:54:54.810Z,11.32
2023-02-06T08:57:41.533Z,11.15
2023-02-06T09:00:28.682Z,11.70
2023-02-06T09:03:16.812Z,11.86
2023-02-06T09:06:09.694Z,12.31
2023-02-06T09:08:58.199Z,11.60
2023-02-06T09:11:45.086Z,11.47
2023-02-06T09:14:32.222Z,11.56
2023-02-06T09:17:18.810Z,11.94
2023-02-06T09:20:08.125Z,12.31
2023-02-06T09:22:55.111Z,12.94
2023-02-06T09:25:42.132Z,12.37
2023-02-06T09:28:28.731Z,12.24
2023-02-06T09:31:15.658Z,12.43
2023-02-06T09:34:02.956Z,12.87
2023-02-06T09:36:51.177Z,13.31
2023-02-06T09:39:38.035Z,13.15
2023-02-06T09:42:33.834Z,13.09
2023-02-06T09:45:23.588Z,13.10
2023-02-06T09:48:18.459Z,12.68
2023-02-06T09:51:16.520Z,12.54
2023-02-06T09:54:13.487Z,11.98
2023-02-06T09:57:09.114Z,11.71
2023-02-06T10:00:01.267Z,12.13
2023-02-06T10:03:04.535Z,12.29
2023-02-06T10:06:07.137Z,12.19
2023-02-06T10:09:02.187Z,12.22
2023-02-06T10:11:56.942Z,11.73
2023-02-06T10:14:49.851Z,12.31
2023-02-06T10:17:43.669Z,12.93
2023-02-06T10:20:34.708Z,12.84
2023-02-06T10:23:25.865Z,13.21
2023-02-06T10:26:18.263Z,13.29
2023-02-06T10:29:07.852Z,14.06
2023-02-06T10:32:10.341Z,14.05
2023-02-06T10:35:21.206Z,14.14
2023-02-06T10:38:27.218Z,13.75
2023-02-06T10:41:23.979Z,14.17
2023-02-06T10:44:23.005Z,14.58
2023-02-06T10:47:22.639Z,14.96
2023-02-06T10:50:20.397Z,15.74
2023-02-06T10:53:16.045Z,15.67
2023-02-06T10:56:05.916Z,14.50
2023-02-06T10:58:57.145Z,14.49
2023-02-06T11:01:48.406Z,13.97
2023-02-06T11:04:38.732Z,14.98
2023-02-06T11:07:30.908Z,14.31
2023-02-06T11:10:20.270Z,14.66
2023-02-06T11:13:12.067Z,13.78
2023-02-06T11:16:02.733Z,14.51
2023-02-06T11:18:52.075Z,14.61
2023-02-06T11:21:55.122Z,14.82
2023-02-06T11:25:01.232Z,14.61
2023-02-06T11:27:48.377Z,15.34
2023-02-06T11:30:38.957Z,14.50
2023-02-06T11:33:35.894Z,14.56
2023-02-06T11:36:30.613Z,15.20
2023-02-06T11:39:24.450Z,15.83
2023-02-06T11:42:21.741Z,14.89
2023-02-06T11:45:25.738Z,15.08
2023-02-06T11:48:37.845Z,15.56
2023-02-06T11:51:27.818Z,14.97
2023-02-06T11:54:22.022Z,14.84
2023-02-06T11:57:21.482Z,14.26
2023-02-06T12:00:21.636Z,13.94
2023-02-06T12:03:27.557Z,15.76
2023-02-06T12:06:16.648Z,15.46
2023-02-06T12:09:10.531Z,14.87
2023-02-06T12:12:02.601Z,14.73
2023-02-06T12:14:55.347Z,14.18
2023-02-06T12:17:46.087Z,14.30
2023-02-06T12:20:34.944Z,14.46
2023-02-06T12:23:28.920Z,14.09
2023-02-06T12:26:20.529Z,14.84
2023-02-06T12:29:13.018Z,14.80
2023-02-06T12:32:07.561Z,15.62
2023-02-06T12:35:00.337Z,17.15
2023-02-06T12:37:52.409Z,16.87
2023-02-06T12:40:46.102Z,16.69
2023-02-06T12:43:37.484Z,14.90
2023-02-06T12:46:28.393Z,14.40
2023-02-06T12:49:21.587Z,13.03
2023-02-06T12:52:17.028Z,13.86
2023-02-06T12:55:13.364Z,15.01
2023-02-06T12:58:00.475Z,15.88
2023-02-06T13:00:57.464Z,15.53
2023-02-06T13:03:45.789Z,15.70
2023-02-06T13:06:40.640Z,16.75
2023-02-06T13:09:32.394Z,15.37
2023-02-06T13:12:22.622Z,15.55
2023-02-06T13:15:33.620Z,15.32
2023-02-06T13:18:52.456Z,15.47
2023-02-06T13:21:39.167Z,15.41
2023-02-06T13:24:25.863Z,16.16
2023-02-06T13:27:16.059Z,16.10
2023-02-06T13:30:18.112Z,16.75
2023-02-06T13:33:16.395Z,15.91
2023-02-06T13:36:09.945Z,15.19
2023-02-06T13:38:57.324Z,15.40
2023-02-06T13:41:44.661Z,15.60
2023-02-06T13:44:34.692Z,16.79
2023-02-06T13:47:59.179Z,16.56
2023-02-06T13:50:58.534Z,15.95
2023-02-06T13:54:19.583Z,15.98
2023-02-06T13:57:38.591Z,16.12
2023-02-06T14:00:30.203Z,15.66
2023-02-06T14:03:23.665Z,16.29
2023-02-06T14:06:24.611Z,16.15
2023-02-06T14:09:46.516Z,16.99
2023-02-06T14:12:46.945Z,17.41
2023-02-06T14:15:40.769Z,17.32
2023-02-06T14:18:41.518Z,18.68
2023-02-06T14:21:37.416Z,17.86
2023-02-06T14:24:50.986Z,17.04
2023-02-06T14:27:52.586Z,17.55
2023-02-06T14:30:52.131Z,17.41
2023-02-06T14:33:53.164Z,17.34
2023-02-06T14:36:57.790Z,15.61
2023-02-06T14:39:50.510Z,15.62
2023-02-06T14:42:40.090Z,16.63
2023-02-06T14:45:36.048Z,16.22
2023-02-06T14:48:34.063Z,16.22
2023-02-06T14:51:26.168Z,10.55
2023-02-06T14:54:29.961Z,9.01
2023-02-06T14:57:23.084Z,8.67
2023-02-06T15:00:19.219Z,8.47
2023-02-06T15:03:09.008Z,8.48
2023-02-06T15:06:07.042Z,8.50
2023-02-06T15:08:53.840Z,8.54
2023-02-06T15:11:40.473Z,12.42
2023-02-06T15:14:30.746Z,12.84
2023-02-06T15:17:21.393Z,12.36
2023-02-06T15:20:26.211Z,12.01
2023-02-06T15:23:18.825Z,12.97
2023-02-06T15:26:16.151Z,13.62
2023-02-06T15:29:04.779Z,14.10
2023-02-06T15:31:55.745Z,14.20
2023-02-06T15:34:46.710Z,14.46
2023-02-06T15:37:35.700Z,13.75
2023-02-06T15:40:29.826Z,13.87
2023-02-06T15:43:20.015Z,14.58
2023-02-06T15:46:07.210Z,15.24
2023-02-06T15:48:57.394Z,15.98
2023-02-06T15:51:51.751Z,15.24
2023-02-06T15:54:41.065Z,15.66
2023-02-06T15:57:31.811Z,15.04
2023-02-06T16:00:23.926Z,15.50
2023-02-06T16:03:20.928Z,16.02
2023-02-06T16:06:16.417Z,15.50
2023-02-06T16:09:07.213Z,15.93
2023-02-06T16:11:57.003Z,16.71
2023-02-06T16:14:56.410Z,16.99
2023-02-06T16:17:43.140Z,16.84
2023-02-06T16:20:37.149Z,17.77
2023-02-06T16:23:28.237Z,17.35
2023-02-06T16:26:18.198Z,12.37
2023-02-06T16:29:16.287Z,9.37
2023-02-06T16:32:13.231Z,8.78
2023-02-06T16:35:01.216Z,8.94
2023-02-06T16:37:49.991Z,9.21
2023-02-06T16:40:38.541Z,8.81
2023-02-06T16:43:28.709Z,8.98
2023-02-06T16:46:15.832Z,8.77
2023-02-06T16:49:02.541Z,8.85
2023-02-06T16:51:52.343Z,9.35
2023-02-06T16:54:39.004Z,9.32
2023-02-06T16:57:31.252Z,9.03
2023-02-06T17:00:19.966Z,9.06
2023-02-06T17:03:07.132Z,9.30
2023-02-06T17:05:54.679Z,9.34
2023-02-06T17:08:41.343Z,9.33
2023-02-06T17:11:28.035Z,9.81
2023-02-06T17:14:16.098Z,9.16
2023-02-06T17:17:05.375Z,10.06
2023-02-06T17:19:53.026Z,10.11
2023-02-06T17:22:39.574Z,12.58
2023-02-06T17:25:26.827Z,12.51
2023-02-06T17:28:17.146Z,11.93
2023-02-06T17:31:05.723Z,11.19
2023-02-06T17:33:52.113Z,11.40
2023-02-06T17:36:40.850Z,11.58
2023-02-06T17:39:27.516Z,11.62
2023-02-06T17:42:14.891Z,11.52
2023-02-06T17:45:01.836Z,11.47
2023-02-06T17:47:50.034Z,11.89
2023-02-06T17:50:38.368Z,12.27
2023-02-06T17:53:24.879Z,12.30
2023-02-06T17:56:13.209Z,12.19
2023-02-06T17:59:00.053Z,12.11
2023-02-06T18:01:46.699Z,11.82
2023-02-06T18:04:35.098Z,11.46
2023-02-06T18:07:22.150Z,11.22
2023-02-06T18:10:10.995Z,11.21
2023-02-06T18:12:57.620Z,11.06
2023-02-06T18:15:50.200Z,11.44
2023-02-06T18:18:37.041Z,11.20
2023-02-06T18:21:25.378Z,11.10
2023-02-06T18:24:11.744Z,11.54
2023-02-06T18:26:58.470Z,11.20
2023-02-06T18:29:50.213Z,11.52
2023-02-06T18:32:38.965Z,11.60
2023-02-06T18:35:25.549Z,11.93
2023-02-06T18:38:14.281Z,11.75
2023-02-06T18:41:04.559Z,11.39
2023-02-06T18:43:50.458Z,11.28
2023-02-06T18:46:37.996Z,11.51
2023-02-06T18:49:24.654Z,11.40
2023-02-06T18:52:11.473Z,11.28
2023-02-06T18:54:59.629Z,10.66
2023-02-06T18:57:46.544Z,9.46
2023-02-06T19:00:35.875Z,9.15
2023-02-06T19:03:23.146Z,8.95
2023-02-06T19:06:14.954Z,8.79
2023-02-06T19:09:02.165Z,8.89
2023-02-06T19:11:50.282Z,9.30
2023-02-06T19:14:36.996Z,10.38
2023-02-06T19:17:23.925Z,10.58
2023-02-06T19:20:13.045Z,10.49
2023-02-06T19:22:59.672Z,10.65
2023-02-06T19:25:46.343Z,10.70
2023-02-06T19:28:35.783Z,10.64
2023-02-06T19:31:24.686Z,9.62
2023-02-06T19:34:11.943Z,10.10
2023-02-06T19:36:58.484Z,10.49
2023-02-06T19:39:45.299Z,10.90
2023-02-06T19:42:32.058Z,10.98
2023-02-06T19:45:20.177Z,10.79
2023-02-06T19:48:11.923Z,10.69
2023-02-06T19:51:03.512Z,10.57
2023-02-06T19:53:51.070Z,10.76
2023-02-06T19:56:39.588Z,10.65
2023-02-06T19:59:28.529Z,10.98
2023-02-06T20:02:16.715Z,10.83
2023-02-06T20:05:03.389Z,11.27
2023-02-06T20:07:49.887Z,11.54
2023-02-06T20:10:38.293Z,11.41
2023-02-06T20:13:25.478Z,11.39
2023-02-06T20:16:16.641Z,11.59
2023-02-06T20:19:09.645Z,11.74
2023-02-06T20:21:59.131Z,11.69
2023-02-06T20:24:46.118Z,11.59
2023-02-06T20:27:32.895Z,11.33
2023-02-06T20:30:22.032Z,11.91
2023-02-06T20:33:09.384Z,10.76
2023-02-06T20:35:57.484Z,11.11
2023-02-06T20:38:48.314Z,10.82
2023-02-06T20:41:35.268Z,10.87
2023-02-06T20:44:22.524Z,10.80
2023-02-06T20:47:09.388Z,10.99
2023-02-06T20:49:55.951Z,10.83
2023-02-06T20:52:43.888Z,10.70
2023-02-06T20:55:30.814Z,9.93
2023-02-06T20:58:17.133Z,9.16
2023-02-06T21:01:03.750Z,9.91
2023-02-06T21:03:52.481Z,9.94
2023-02-06T21:06:40.635Z,10.18
2023-02-06T21:09:29.112Z,9.99
2023-02-06T21:12:15.927Z,9.93
2023-02-06T21:15:02.417Z,9.75
2023-02-06T21:17:48.841Z,9.54
2023-02-06T21:20:35.676Z,9.41
2023-02-06T21:23:23.183Z,9.16
2023-02-06T21:26:12.770Z,9.27
2023-02-06T21:29:00.204Z,9.42
2023-02-06T21:31:46.844Z,9.66
2023-02-06T21:34:33.515Z,9.82
2023-02-06T21:37:22.395Z,9.77
2023-02-06T21:40:09.349Z,9.99
2023-02-06T21:42:57.500Z,9.86
2023-02-06T21:45:44.851Z,10.02
2023-02-06T21:48:33.904Z,9.90
2023-02-06T21:51:21.555Z,9.76
2023-02-06T21:54:08.056Z,9.58
2023-02-06T21:56:54.660Z,9.52
2023-02-06T21:59:42.357Z,9.53
2023-02-06T22:02:29.033Z,9.62
2023-02-06T22:05:15.652Z,9.44
2023-02-06T22:08:02.220Z,9.01
2023-02-06T22:10:48.867Z,9.24
2023-02-06T22:13:35.703Z,8.92
2023-02-06T22:16:24.823Z,8.82
2023-02-06T22:19:11.714Z,8.90
2023-02-06T22:21:58.448Z,8.91
2023-02-06T22:24:45.195Z,8.98
2023-02-06T22:27:33.719Z,8.67
2023-02-06T22:30:20.635Z,8.53
2023-02-06T22:33:08.970Z,8.61
2023-02-06T22:35:55.570Z,8.34
2023-02-06T22:38:43.715Z,8.16
2023-02-06T22:41:31.011Z,8.43
2023-02-06T22:44:19.112Z,8.72
2023-02-06T22:47:05.666Z,8.83
2023-02-06T22:49:53.680Z,8.86
2023-02-06T22:52:57.373Z,9.02
2023-02-06T22:56:01.985Z,9.02
2023-02-06T22:58:49.485Z,9.03
2023-02-06T23:01:57.698Z,8.58
2023-02-06T23:04:44.289Z,8.40
2023-02-06T23:07:32.380Z,8.60
2023-02-06T23:10:19.075Z,8.68
2023-02-06T23:13:05.275Z,8.58
2023-02-06T23:15:52.356Z,8.56
2023-02-06T23:18:39.142Z,8.19
2023-02-06T23:21:27.212Z,8.32
2023-02-06T23:24:15.883Z,7.63
2023-02-06T23:27:02.397Z,7.62
2023-02-06T23:29:48.790Z,7.50
2023-02-06T23:32:35.716Z,7.49
2023-02-06T23:35:22.104Z,7.78
2023-02-06T23:38:09.662Z,7.82
2023-02-06T23:40:57.478Z,7.68
2023-02-06T23:43:44.637Z,7.41
2023-02-06T23:46:33.381Z,6.70
2023-02-06T23:49:19.769Z,6.55
2023-02-06T23:52:06.421Z,6.55
2023-02-06T23:54:53.344Z,6.38
2023-02-06T23:57:41.432Z,6.24
